sensor_id;sensor_type;location;lat;lon;timestamp;temperature;humidity
15844;DHT22;50807;52.436;13.346;2023-05-07T00:00:05;13.90;99.20
15844;DHT22;50807;52.436;13.346;2023-05-07T00:00:39;13.90;99.20
15844;DHT22;50807;52.436;13.346;2023-05-07T00:01:12;13.90;99.20
15844;DHT22;50807;52.436;13.346;2023-05-07T00:01:43;13.90;99.20
15844;DHT22;50807;52.436;13.346;2023-05-07T00:02:14;14.00;99.20
15844;DHT22;50807;52.436;13.346;2023-05-07T00:02:45;13.90;99.20
15844;DHT22;50807;52.436;13.346;2023-05-07T00:03:16;13.90;99.20
15844;DHT22;50807;52.436;13.346;2023-05-07T00:03:47;14.00;99.20
15844;DHT22;50807;52.436;13.346;2023-05-07T00:04:20;13.90;99.20
15844;DHT22;50807;52.436;13.346;2023-05-07T00:04:51;14.00;99.20
15844;DHT22;50807;52.436;13.346;2023-05-07T00:05:22;13.90;99.20
15844;DHT22;50807;52.436;13.346;2023-05-07T00:05:53;14.00;99.20
15844;DHT22;50807;52.436;13.346;2023-05-07T00:06:24;14.00;99.20
15844;DHT22;50807;52.436;13.346;2023-05-07T00:06:57;14.00;99.20
15844;DHT22;50807;52.436;13.346;2023-05-07T00:07:28;14.00;99.20
15844;DHT22;50807;52.436;13.346;2023-05-07T00:07:59;14.00;99.10
15844;DHT22;50807;52.436;13.346;2023-05-07T00:08:30;14.00;99.10
15844;DHT22;50807;52.436;13.346;2023-05-07T00:09:02;14.00;99.20
15844;DHT22;50807;52.436;13.346;2023-05-07T00:09:34;14.00;99.10
15844;DHT22;50807;52.436;13.346;2023-05-07T00:10:06;14.00;99.10
15844;DHT22;50807;52.436;13.346;2023-05-07T00:10:37;14.00;99.10
15844;DHT22;50807;52.436;13.346;2023-05-07T00:11:09;13.90;99.10
15844;DHT22;50807;52.436;13.346;2023-05-07T00:11:40;13.90;99.10
15844;DHT22;50807;52.436;13.346;2023-05-07T00:12:10;13.90;99.10
15844;DHT22;50807;52.436;13.346;2023-05-07T00:12:41;13.90;99.10
15844;DHT22;50807;52.436;13.346;2023-05-07T00:13:13;13.90;99.10
15844;DHT22;50807;52.436;13.346;2023-05-07T00:13:43;13.90;99.10
15844;DHT22;50807;52.436;13.346;2023-05-07T00:14:14;13.90;99.10
15844;DHT22;50807;52.436;13.346;2023-05-07T00:14:46;13.90;99.10
15844;DHT22;50807;52.436;13.346;2023-05-07T00:15:17;13.90;99.10
15844;DHT22;50807;52.436;13.346;2023-05-07T00:15:47;13.90;99.10
15844;DHT22;50807;52.436;13.346;2023-05-07T00:16:18;13.90;99.10
15844;DHT22;50807;52.436;13.346;2023-05-07T00:16:50;13.90;99.10
15844;DHT22;50807;52.436;13.346;2023-05-07T00:17:22;13.90;99.10
15844;DHT22;50807;52.436;13.346;2023-05-07T00:17:53;13.90;99.10
15844;DHT22;50807;52.436;13.346;2023-05-07T00:18:25;13.90;99.10
15844;DHT22;50807;52.436;13.346;2023-05-07T00:18:56;13.90;99.10
15844;DHT22;50807;52.436;13.346;2023-05-07T00:19:28;13.90;99.10
15844;DHT22;50807;52.436;13.346;2023-05-07T00:19:59;13.90;99.10
15844;DHT22;50807;52.436;13.346;2023-05-07T00:20:30;13.90;99.10
15844;DHT22;50807;52.436;13.346;2023-05-07T00:21:01;13.90;99.20
15844;DHT22;50807;52.436;13.346;2023-05-07T00:21:32;13.90;99.10
15844;DHT22;50807;52.436;13.346;2023-05-07T00:22:03;13.90;99.10
15844;DHT22;50807;52.436;13.346;2023-05-07T00:22:34;13.90;99.20
15844;DHT22;50807;52.436;13.346;2023-05-07T00:23:06;13.90;99.20
15844;DHT22;50807;52.436;13.346;2023-05-07T00:23:36;13.90;99.10
15844;DHT22;50807;52.436;13.346;2023-05-07T00:24:07;13.90;99.10
15844;DHT22;50807;52.436;13.346;2023-05-07T00:24:39;13.90;99.10
15844;DHT22;50807;52.436;13.346;2023-05-07T00:25:10;13.90;99.10
15844;DHT22;50807;52.436;13.346;2023-05-07T00:25:40;13.90;99.20
15844;DHT22;50807;52.436;13.346;2023-05-07T00:26:12;13.90;99.20
15844;DHT22;50807;52.436;13.346;2023-05-07T00:26:43;13.90;99.20
15844;DHT22;50807;52.436;13.346;2023-05-07T00:27:14;13.90;99.20
15844;DHT22;50807;52.436;13.346;2023-05-07T00:27:44;13.90;99.20
15844;DHT22;50807;52.436;13.346;2023-05-07T00:28:16;13.90;99.20
15844;DHT22;50807;52.436;13.346;2023-05-07T00:28:47;13.90;99.20
15844;DHT22;50807;52.436;13.346;2023-05-07T00:29:18;13.90;99.10
15844;DHT22;50807;52.436;13.346;2023-05-07T00:29:48;13.90;99.20
15844;DHT22;50807;52.436;13.346;2023-05-07T00:30:20;13.90;99.10
15844;DHT22;50807;52.436;13.346;2023-05-07T00:30:51;13.90;99.10
15844;DHT22;50807;52.436;13.346;2023-05-07T00:31:23;14.00;99.20
15844;DHT22;50807;52.436;13.346;2023-05-07T00:31:54;13.90;99.20
15844;DHT22;50807;52.436;13.346;2023-05-07T00:32:25;13.90;99.20
15844;DHT22;50807;52.436;13.346;2023-05-07T00:32:56;13.90;99.20
15844;DHT22;50807;52.436;13.346;2023-05-07T00:33:27;13.90;99.10
15844;DHT22;50807;52.436;13.346;2023-05-07T00:33:58;13.90;99.10
15844;DHT22;50807;52.436;13.346;2023-05-07T00:34:30;13.90;99.10
15844;DHT22;50807;52.436;13.346;2023-05-07T00:35:01;13.90;99.10
15844;DHT22;50807;52.436;13.346;2023-05-07T00:35:33;14.00;99.10
15844;DHT22;50807;52.436;13.346;2023-05-07T00:36:04;13.90;99.10
15844;DHT22;50807;52.436;13.346;2023-05-07T00:36:35;13.90;99.10
15844;DHT22;50807;52.436;13.346;2023-05-07T00:37:07;13.90;99.10
15844;DHT22;50807;52.436;13.346;2023-05-07T00:37:37;13.90;99.10
15844;DHT22;50807;52.436;13.346;2023-05-07T00:38:08;13.90;99.10
15844;DHT22;50807;52.436;13.346;2023-05-07T00:38:39;13.90;99.10
15844;DHT22;50807;52.436;13.346;2023-05-07T00:39:11;13.90;99.10
15844;DHT22;50807;52.436;13.346;2023-05-07T00:39:41;13.90;99.10
15844;DHT22;50807;52.436;13.346;2023-05-07T00:40:12;13.90;99.10
15844;DHT22;50807;52.436;13.346;2023-05-07T00:40:44;13.90;99.10
15844;DHT22;50807;52.436;13.346;2023-05-07T00:41:15;13.90;99.10
15844;DHT22;50807;52.436;13.346;2023-05-07T00:41:46;13.90;99.10
15844;DHT22;50807;52.436;13.346;2023-05-07T00:42:18;13.90;99.10
15844;DHT22;50807;52.436;13.346;2023-05-07T00:42:49;13.90;99.10
15844;DHT22;50807;52.436;13.346;2023-05-07T00:43:20;13.90;99.10
15844;DHT22;50807;52.436;13.346;2023-05-07T00:43:50;13.90;99.10
15844;DHT22;50807;52.436;13.346;2023-05-07T00:44:22;13.90;99.10
15844;DHT22;50807;52.436;13.346;2023-05-07T00:44:53;13.90;99.10
15844;DHT22;50807;52.436;13.346;2023-05-07T00:45:27;13.90;99.10
15844;DHT22;50807;52.436;13.346;2023-05-07T00:45:59;13.90;99.10
15844;DHT22;50807;52.436;13.346;2023-05-07T00:46:31;13.90;99.10
15844;DHT22;50807;52.436;13.346;2023-05-07T00:47:04;13.90;99.10
15844;DHT22;50807;52.436;13.346;2023-05-07T00:47:37;13.90;99.10
15844;DHT22;50807;52.436;13.346;2023-05-07T00:48:08;13.90;99.00
15844;DHT22;50807;52.436;13.346;2023-05-07T00:48:39;13.90;99.00
15844;DHT22;50807;52.436;13.346;2023-05-07T00:49:10;14.00;99.10
15844;DHT22;50807;52.436;13.346;2023-05-07T00:49:44;13.90;99.00
15844;DHT22;50807;52.436;13.346;2023-05-07T00:50:16;14.00;99.10
15844;DHT22;50807;52.436;13.346;2023-05-07T00:50:47;13.90;99.00
15844;DHT22;50807;52.436;13.346;2023-05-07T00:51:19;13.90;99.00
15844;DHT22;50807;52.436;13.346;2023-05-07T00:51:50;13.90;99.00
15844;DHT22;50807;52.436;13.346;2023-05-07T00:52:24;13.90;99.00
15844;DHT22;50807;52.436;13.346;2023-05-07T00:52:57;13.90;99.00
15844;DHT22;50807;52.436;13.346;2023-05-07T00:53:28;13.90;98.90
15844;DHT22;50807;52.436;13.346;2023-05-07T00:54:02;14.00;99.00
15844;DHT22;50807;52.436;13.346;2023-05-07T00:54:35;13.90;98.90
15844;DHT22;50807;52.436;13.346;2023-05-07T00:55:07;13.90;98.90
15844;DHT22;50807;52.436;13.346;2023-05-07T00:55:38;13.90;98.90
15844;DHT22;50807;52.436;13.346;2023-05-07T00:56:10;13.90;98.90
15844;DHT22;50807;52.436;13.346;2023-05-07T00:56:42;13.90;98.90
15844;DHT22;50807;52.436;13.346;2023-05-07T00:57:13;13.90;98.90
15844;DHT22;50807;52.436;13.346;2023-05-07T00:57:45;13.90;98.90
15844;DHT22;50807;52.436;13.346;2023-05-07T00:58:16;13.90;98.90
15844;DHT22;50807;52.436;13.346;2023-05-07T00:58:47;13.90;98.90
15844;DHT22;50807;52.436;13.346;2023-05-07T00:59:19;13.90;99.20
15844;DHT22;50807;52.436;13.346;2023-05-07T00:59:51;13.90;98.80
15844;DHT22;50807;52.436;13.346;2023-05-07T01:00:22;13.90;98.90
15844;DHT22;50807;52.436;13.346;2023-05-07T01:00:55;13.90;98.80
15844;DHT22;50807;52.436;13.346;2023-05-07T01:01:25;13.90;98.80
15844;DHT22;50807;52.436;13.346;2023-05-07T01:01:57;13.90;98.80
15844;DHT22;50807;52.436;13.346;2023-05-07T01:02:28;13.90;98.80
15844;DHT22;50807;52.436;13.346;2023-05-07T01:02:59;13.90;98.80
15844;DHT22;50807;52.436;13.346;2023-05-07T01:03:30;13.90;98.80
15844;DHT22;50807;52.436;13.346;2023-05-07T01:04:02;13.90;98.80
15844;DHT22;50807;52.436;13.346;2023-05-07T01:04:33;13.90;98.80
15844;DHT22;50807;52.436;13.346;2023-05-07T01:05:06;13.90;98.80
15844;DHT22;50807;52.436;13.346;2023-05-07T01:05:39;13.90;98.70
15844;DHT22;50807;52.436;13.346;2023-05-07T01:06:13;13.90;98.70
15844;DHT22;50807;52.436;13.346;2023-05-07T01:06:47;13.90;98.70
15844;DHT22;50807;52.436;13.346;2023-05-07T01:07:18;13.90;98.70
15844;DHT22;50807;52.436;13.346;2023-05-07T01:07:50;13.90;98.70
15844;DHT22;50807;52.436;13.346;2023-05-07T01:08:25;13.90;98.70
15844;DHT22;50807;52.436;13.346;2023-05-07T01:08:58;13.90;98.70
15844;DHT22;50807;52.436;13.346;2023-05-07T01:09:30;13.90;98.60
15844;DHT22;50807;52.436;13.346;2023-05-07T01:10:02;13.90;98.60
15844;DHT22;50807;52.436;13.346;2023-05-07T01:10:35;13.90;98.60
15844;DHT22;50807;52.436;13.346;2023-05-07T01:11:06;13.90;98.60
15844;DHT22;50807;52.436;13.346;2023-05-07T01:11:38;13.90;98.60
15844;DHT22;50807;52.436;13.346;2023-05-07T01:12:10;13.90;98.60
15844;DHT22;50807;52.436;13.346;2023-05-07T01:12:43;13.90;98.60
15844;DHT22;50807;52.436;13.346;2023-05-07T01:13:16;13.80;98.60
15844;DHT22;50807;52.436;13.346;2023-05-07T01:13:47;13.80;98.60
15844;DHT22;50807;52.436;13.346;2023-05-07T01:14:20;13.90;98.70
15844;DHT22;50807;52.436;13.346;2023-05-07T01:14:51;13.80;98.60
15844;DHT22;50807;52.436;13.346;2023-05-07T01:15:23;13.80;98.60
15844;DHT22;50807;52.436;13.346;2023-05-07T01:15:53;13.80;98.60
15844;DHT22;50807;52.436;13.346;2023-05-07T01:16:25;13.90;98.60
15844;DHT22;50807;52.436;13.346;2023-05-07T01:16:57;13.90;98.60
15844;DHT22;50807;52.436;13.346;2023-05-07T01:17:29;13.80;98.60
15844;DHT22;50807;52.436;13.346;2023-05-07T01:18:00;13.80;98.60
15844;DHT22;50807;52.436;13.346;2023-05-07T01:18:31;13.80;98.60
15844;DHT22;50807;52.436;13.346;2023-05-07T01:19:03;13.80;98.60
15844;DHT22;50807;52.436;13.346;2023-05-07T01:19:34;13.80;98.60
15844;DHT22;50807;52.436;13.346;2023-05-07T01:20:09;13.80;98.60
15844;DHT22;50807;52.436;13.346;2023-05-07T01:20:40;13.80;98.60
15844;DHT22;50807;52.436;13.346;2023-05-07T01:21:12;13.80;98.60
15844;DHT22;50807;52.436;13.346;2023-05-07T01:21:48;13.80;98.60
15844;DHT22;50807;52.436;13.346;2023-05-07T01:22:29;13.80;98.60
15844;DHT22;50807;52.436;13.346;2023-05-07T01:23:01;13.80;98.60
15844;DHT22;50807;52.436;13.346;2023-05-07T01:23:34;13.80;98.60
15844;DHT22;50807;52.436;13.346;2023-05-07T01:24:06;13.80;98.60
15844;DHT22;50807;52.436;13.346;2023-05-07T01:24:38;13.80;98.60
15844;DHT22;50807;52.436;13.346;2023-05-07T01:25:08;13.80;98.60
15844;DHT22;50807;52.436;13.346;2023-05-07T01:25:40;13.80;98.60
15844;DHT22;50807;52.436;13.346;2023-05-07T01:26:11;13.80;98.60
15844;DHT22;50807;52.436;13.346;2023-05-07T01:26:42;13.80;98.70
15844;DHT22;50807;52.436;13.346;2023-05-07T01:27:14;13.80;98.70
15844;DHT22;50807;52.436;13.346;2023-05-07T01:27:45;13.80;98.70
15844;DHT22;50807;52.436;13.346;2023-05-07T01:28:16;13.80;98.70
15844;DHT22;50807;52.436;13.346;2023-05-07T01:28:47;13.80;98.70
15844;DHT22;50807;52.436;13.346;2023-05-07T01:29:18;13.80;98.70
15844;DHT22;50807;52.436;13.346;2023-05-07T01:29:49;13.80;98.70
15844;DHT22;50807;52.436;13.346;2023-05-07T01:30:21;13.80;98.70
15844;DHT22;50807;52.436;13.346;2023-05-07T01:30:55;13.80;98.80
15844;DHT22;50807;52.436;13.346;2023-05-07T01:31:33;13.80;98.80
15844;DHT22;50807;52.436;13.346;2023-05-07T01:32:06;13.90;98.90
15844;DHT22;50807;52.436;13.346;2023-05-07T01:32:42;13.80;98.80
15844;DHT22;50807;52.436;13.346;2023-05-07T01:33:19;13.80;98.80
15844;DHT22;50807;52.436;13.346;2023-05-07T01:33:52;13.80;98.80
15844;DHT22;50807;52.436;13.346;2023-05-07T01:34:25;13.90;98.80
15844;DHT22;50807;52.436;13.346;2023-05-07T01:34:58;13.90;98.80
15844;DHT22;50807;52.436;13.346;2023-05-07T01:35:37;13.90;98.80
15844;DHT22;50807;52.436;13.346;2023-05-07T01:36:11;13.90;98.80
15844;DHT22;50807;52.436;13.346;2023-05-07T01:36:44;13.90;98.80
15844;DHT22;50807;52.436;13.346;2023-05-07T01:37:16;13.90;98.90
15844;DHT22;50807;52.436;13.346;2023-05-07T01:37:49;13.90;98.80
15844;DHT22;50807;52.436;13.346;2023-05-07T01:38:22;13.90;98.80
15844;DHT22;50807;52.436;13.346;2023-05-07T01:38:53;13.90;98.80
15844;DHT22;50807;52.436;13.346;2023-05-07T01:39:26;13.90;98.80
15844;DHT22;50807;52.436;13.346;2023-05-07T01:39:59;13.90;98.80
15844;DHT22;50807;52.436;13.346;2023-05-07T01:40:32;13.90;98.80
15844;DHT22;50807;52.436;13.346;2023-05-07T01:41:04;13.90;98.80
15844;DHT22;50807;52.436;13.346;2023-05-07T01:41:36;13.90;98.80
15844;DHT22;50807;52.436;13.346;2023-05-07T01:42:07;13.90;98.80
15844;DHT22;50807;52.436;13.346;2023-05-07T01:42:38;13.90;98.80
15844;DHT22;50807;52.436;13.346;2023-05-07T01:43:12;13.90;98.80
15844;DHT22;50807;52.436;13.346;2023-05-07T01:43:43;13.90;98.80
15844;DHT22;50807;52.436;13.346;2023-05-07T01:44:14;13.90;98.80
15844;DHT22;50807;52.436;13.346;2023-05-07T01:44:47;13.90;98.80
15844;DHT22;50807;52.436;13.346;2023-05-07T01:45:18;13.90;98.80
15844;DHT22;50807;52.436;13.346;2023-05-07T01:45:50;13.90;98.80
15844;DHT22;50807;52.436;13.346;2023-05-07T01:46:23;13.90;98.80
15844;DHT22;50807;52.436;13.346;2023-05-07T01:46:57;13.90;98.80
15844;DHT22;50807;52.436;13.346;2023-05-07T01:47:29;13.90;98.80
15844;DHT22;50807;52.436;13.346;2023-05-07T01:48:02;13.90;98.80
15844;DHT22;50807;52.436;13.346;2023-05-07T01:48:34;13.90;98.80
15844;DHT22;50807;52.436;13.346;2023-05-07T01:49:05;13.90;98.80
15844;DHT22;50807;52.436;13.346;2023-05-07T01:49:37;13.90;98.80
15844;DHT22;50807;52.436;13.346;2023-05-07T01:50:09;13.90;98.80
15844;DHT22;50807;52.436;13.346;2023-05-07T01:50:40;13.90;98.80
15844;DHT22;50807;52.436;13.346;2023-05-07T01:51:13;13.90;98.80
15844;DHT22;50807;52.436;13.346;2023-05-07T01:51:43;14.00;98.80
15844;DHT22;50807;52.436;13.346;2023-05-07T01:52:14;13.90;98.80
15844;DHT22;50807;52.436;13.346;2023-05-07T01:52:49;13.90;98.80
15844;DHT22;50807;52.436;13.346;2023-05-07T01:53:21;13.90;98.80
15844;DHT22;50807;52.436;13.346;2023-05-07T01:53:52;13.90;98.80
15844;DHT22;50807;52.436;13.346;2023-05-07T01:54:25;13.90;98.80
15844;DHT22;50807;52.436;13.346;2023-05-07T01:54:58;14.00;98.80
15844;DHT22;50807;52.436;13.346;2023-05-07T01:55:28;14.00;98.80
15844;DHT22;50807;52.436;13.346;2023-05-07T01:56:00;13.90;98.80
15844;DHT22;50807;52.436;13.346;2023-05-07T01:56:31;14.00;98.80
15844;DHT22;50807;52.436;13.346;2023-05-07T01:57:02;14.00;98.80
15844;DHT22;50807;52.436;13.346;2023-05-07T01:57:33;14.00;98.80
15844;DHT22;50807;52.436;13.346;2023-05-07T01:58:04;14.00;98.80
15844;DHT22;50807;52.436;13.346;2023-05-07T01:58:35;14.00;98.80
15844;DHT22;50807;52.436;13.346;2023-05-07T01:59:07;14.00;98.80
15844;DHT22;50807;52.436;13.346;2023-05-07T01:59:37;14.00;98.80
15844;DHT22;50807;52.436;13.346;2023-05-07T02:00:09;14.00;98.80
15844;DHT22;50807;52.436;13.346;2023-05-07T02:00:40;14.00;98.80
15844;DHT22;50807;52.436;13.346;2023-05-07T02:01:12;14.00;98.80
15844;DHT22;50807;52.436;13.346;2023-05-07T02:01:43;14.00;98.80
15844;DHT22;50807;52.436;13.346;2023-05-07T02:02:14;14.00;98.80
15844;DHT22;50807;52.436;13.346;2023-05-07T02:02:46;14.00;98.70
15844;DHT22;50807;52.436;13.346;2023-05-07T02:03:16;14.00;98.70
15844;DHT22;50807;52.436;13.346;2023-05-07T02:03:47;14.00;98.70
15844;DHT22;50807;52.436;13.346;2023-05-07T02:04:18;14.00;98.70
15844;DHT22;50807;52.436;13.346;2023-05-07T02:04:50;14.00;98.70
15844;DHT22;50807;52.436;13.346;2023-05-07T02:05:21;14.00;98.70
15844;DHT22;50807;52.436;13.346;2023-05-07T02:05:52;14.00;98.70
15844;DHT22;50807;52.436;13.346;2023-05-07T02:06:22;14.00;98.60
15844;DHT22;50807;52.436;13.346;2023-05-07T02:06:54;13.90;98.60
15844;DHT22;50807;52.436;13.346;2023-05-07T02:07:26;14.00;98.60
15844;DHT22;50807;52.436;13.346;2023-05-07T02:07:58;13.90;98.60
15844;DHT22;50807;52.436;13.346;2023-05-07T02:08:29;13.90;98.60
15844;DHT22;50807;52.436;13.346;2023-05-07T02:09:01;14.00;98.60
15844;DHT22;50807;52.436;13.346;2023-05-07T02:09:32;13.90;98.60
15844;DHT22;50807;52.436;13.346;2023-05-07T02:10:04;13.90;98.60
15844;DHT22;50807;52.436;13.346;2023-05-07T02:10:36;13.90;98.60
15844;DHT22;50807;52.436;13.346;2023-05-07T02:11:07;13.90;98.60
15844;DHT22;50807;52.436;13.346;2023-05-07T02:11:38;13.90;98.60
15844;DHT22;50807;52.436;13.346;2023-05-07T02:12:09;13.90;98.60
15844;DHT22;50807;52.436;13.346;2023-05-07T02:12:40;13.90;98.60
15844;DHT22;50807;52.436;13.346;2023-05-07T02:13:13;13.90;98.60
15844;DHT22;50807;52.436;13.346;2023-05-07T02:13:43;13.90;98.60
15844;DHT22;50807;52.436;13.346;2023-05-07T02:14:15;13.90;98.60
15844;DHT22;50807;52.436;13.346;2023-05-07T02:14:46;13.90;98.60
15844;DHT22;50807;52.436;13.346;2023-05-07T02:15:17;13.90;98.60
15844;DHT22;50807;52.436;13.346;2023-05-07T02:15:48;13.90;98.60
15844;DHT22;50807;52.436;13.346;2023-05-07T02:16:20;13.90;98.50
15844;DHT22;50807;52.436;13.346;2023-05-07T02:16:52;13.90;98.50
15844;DHT22;50807;52.436;13.346;2023-05-07T02:17:23;13.90;98.50
15844;DHT22;50807;52.436;13.346;2023-05-07T02:18:00;13.90;98.50
15844;DHT22;50807;52.436;13.346;2023-05-07T02:18:31;13.90;98.40
15844;DHT22;50807;52.436;13.346;2023-05-07T02:19:02;13.90;98.40
15844;DHT22;50807;52.436;13.346;2023-05-07T02:19:33;13.90;98.40
15844;DHT22;50807;52.436;13.346;2023-05-07T02:20:06;13.90;98.40
15844;DHT22;50807;52.436;13.346;2023-05-07T02:20:43;13.90;98.40
15844;DHT22;50807;52.436;13.346;2023-05-07T02:21:14;13.90;98.40
15844;DHT22;50807;52.436;13.346;2023-05-07T02:21:45;13.90;98.40
15844;DHT22;50807;52.436;13.346;2023-05-07T02:22:17;13.90;98.40
15844;DHT22;50807;52.436;13.346;2023-05-07T02:22:48;13.90;98.40
15844;DHT22;50807;52.436;13.346;2023-05-07T02:23:20;13.90;98.40
15844;DHT22;50807;52.436;13.346;2023-05-07T02:23:52;13.80;98.40
15844;DHT22;50807;52.436;13.346;2023-05-07T02:24:22;13.80;98.40
15844;DHT22;50807;52.436;13.346;2023-05-07T02:24:54;13.80;98.40
15844;DHT22;50807;52.436;13.346;2023-05-07T02:25:25;13.80;98.40
15844;DHT22;50807;52.436;13.346;2023-05-07T02:26:32;13.80;98.40
15844;DHT22;50807;52.436;13.346;2023-05-07T02:27:04;13.80;98.40
15844;DHT22;50807;52.436;13.346;2023-05-07T02:27:35;13.80;98.40
15844;DHT22;50807;52.436;13.346;2023-05-07T02:28:06;13.80;98.40
15844;DHT22;50807;52.436;13.346;2023-05-07T02:28:36;13.80;98.40
15844;DHT22;50807;52.436;13.346;2023-05-07T02:29:08;13.80;98.40
15844;DHT22;50807;52.436;13.346;2023-05-07T02:29:39;13.80;98.40
15844;DHT22;50807;52.436;13.346;2023-05-07T02:30:10;13.80;98.40
15844;DHT22;50807;52.436;13.346;2023-05-07T02:30:41;13.80;98.40
15844;DHT22;50807;52.436;13.346;2023-05-07T02:31:13;13.80;98.40
15844;DHT22;50807;52.436;13.346;2023-05-07T02:31:44;13.80;98.40
15844;DHT22;50807;52.436;13.346;2023-05-07T02:32:15;13.80;98.40
15844;DHT22;50807;52.436;13.346;2023-05-07T02:32:46;13.80;98.40
15844;DHT22;50807;52.436;13.346;2023-05-07T02:33:17;13.80;98.30
15844;DHT22;50807;52.436;13.346;2023-05-07T02:33:48;13.80;98.40
15844;DHT22;50807;52.436;13.346;2023-05-07T02:34:20;13.80;98.30
15844;DHT22;50807;52.436;13.346;2023-05-07T02:34:50;13.80;98.40
15844;DHT22;50807;52.436;13.346;2023-05-07T02:35:21;13.80;98.30
15844;DHT22;50807;52.436;13.346;2023-05-07T02:35:52;13.80;98.30
15844;DHT22;50807;52.436;13.346;2023-05-07T02:36:25;13.80;98.30
15844;DHT22;50807;52.436;13.346;2023-05-07T02:36:56;13.80;98.40
15844;DHT22;50807;52.436;13.346;2023-05-07T02:37:27;13.80;98.30
15844;DHT22;50807;52.436;13.346;2023-05-07T02:37:58;13.80;98.30
15844;DHT22;50807;52.436;13.346;2023-05-07T02:38:31;13.80;98.30
15844;DHT22;50807;52.436;13.346;2023-05-07T02:39:02;13.80;98.40
15844;DHT22;50807;52.436;13.346;2023-05-07T02:39:33;13.80;98.40
15844;DHT22;50807;52.436;13.346;2023-05-07T02:40:06;13.80;98.30
15844;DHT22;50807;52.436;13.346;2023-05-07T02:40:38;13.70;98.30
15844;DHT22;50807;52.436;13.346;2023-05-07T02:41:09;13.70;98.30
15844;DHT22;50807;52.436;13.346;2023-05-07T02:41:41;13.70;98.30
15844;DHT22;50807;52.436;13.346;2023-05-07T02:42:12;13.70;98.20
15844;DHT22;50807;52.436;13.346;2023-05-07T02:42:42;13.70;98.30
15844;DHT22;50807;52.436;13.346;2023-05-07T02:43:13;13.70;98.30
15844;DHT22;50807;52.436;13.346;2023-05-07T02:43:45;13.70;98.30
15844;DHT22;50807;52.436;13.346;2023-05-07T02:44:16;13.70;98.30
15844;DHT22;50807;52.436;13.346;2023-05-07T02:44:47;13.70;98.40
15844;DHT22;50807;52.436;13.346;2023-05-07T02:45:17;13.70;98.40
15844;DHT22;50807;52.436;13.346;2023-05-07T02:45:49;13.70;98.40
15844;DHT22;50807;52.436;13.346;2023-05-07T02:46:30;13.70;98.40
15844;DHT22;50807;52.436;13.346;2023-05-07T02:47:04;13.70;98.40
15844;DHT22;50807;52.436;13.346;2023-05-07T02:47:35;13.70;98.40
15844;DHT22;50807;52.436;13.346;2023-05-07T02:48:06;13.70;98.40
15844;DHT22;50807;52.436;13.346;2023-05-07T02:48:38;13.70;98.40
15844;DHT22;50807;52.436;13.346;2023-05-07T02:49:08;13.70;98.40
15844;DHT22;50807;52.436;13.346;2023-05-07T02:49:39;13.70;98.70
15844;DHT22;50807;52.436;13.346;2023-05-07T02:50:11;13.70;98.40
15844;DHT22;50807;52.436;13.346;2023-05-07T02:50:42;13.70;98.40
15844;DHT22;50807;52.436;13.346;2023-05-07T02:51:14;13.70;98.40
15844;DHT22;50807;52.436;13.346;2023-05-07T02:51:46;13.70;98.40
15844;DHT22;50807;52.436;13.346;2023-05-07T02:52:16;13.70;98.30
15844;DHT22;50807;52.436;13.346;2023-05-07T02:52:47;13.80;98.40
15844;DHT22;50807;52.436;13.346;2023-05-07T02:53:19;13.70;98.40
15844;DHT22;50807;52.436;13.346;2023-05-07T02:53:51;13.70;98.40
15844;DHT22;50807;52.436;13.346;2023-05-07T02:54:22;13.70;98.40
15844;DHT22;50807;52.436;13.346;2023-05-07T02:54:53;13.70;98.40
15844;DHT22;50807;52.436;13.346;2023-05-07T02:55:24;13.70;98.40
15844;DHT22;50807;52.436;13.346;2023-05-07T02:55:57;13.70;98.70
15844;DHT22;50807;52.436;13.346;2023-05-07T02:56:28;13.70;98.40
15844;DHT22;50807;52.436;13.346;2023-05-07T02:57:00;13.70;98.30
15844;DHT22;50807;52.436;13.346;2023-05-07T02:57:32;13.70;98.30
15844;DHT22;50807;52.436;13.346;2023-05-07T02:58:03;13.70;98.30
15844;DHT22;50807;52.436;13.346;2023-05-07T02:58:34;13.70;98.30
15844;DHT22;50807;52.436;13.346;2023-05-07T02:59:05;13.70;98.20
15844;DHT22;50807;52.436;13.346;2023-05-07T02:59:36;13.70;98.30
15844;DHT22;50807;52.436;13.346;2023-05-07T03:00:13;13.70;98.30
15844;DHT22;50807;52.436;13.346;2023-05-07T03:00:44;13.70;98.30
15844;DHT22;50807;52.436;13.346;2023-05-07T03:01:15;13.70;98.30
15844;DHT22;50807;52.436;13.346;2023-05-07T03:01:47;13.70;98.20
15844;DHT22;50807;52.436;13.346;2023-05-07T03:02:18;13.70;98.20
15844;DHT22;50807;52.436;13.346;2023-05-07T03:02:49;13.70;98.20
15844;DHT22;50807;52.436;13.346;2023-05-07T03:03:21;13.70;98.20
15844;DHT22;50807;52.436;13.346;2023-05-07T03:03:52;13.70;98.20
15844;DHT22;50807;52.436;13.346;2023-05-07T03:04:22;13.70;98.10
15844;DHT22;50807;52.436;13.346;2023-05-07T03:04:54;13.70;98.10
15844;DHT22;50807;52.436;13.346;2023-05-07T03:05:25;13.60;98.10
15844;DHT22;50807;52.436;13.346;2023-05-07T03:05:56;13.70;98.10
15844;DHT22;50807;52.436;13.346;2023-05-07T03:06:27;13.60;98.40
15844;DHT22;50807;52.436;13.346;2023-05-07T03:06:58;13.60;98.10
15844;DHT22;50807;52.436;13.346;2023-05-07T03:07:29;13.60;98.10
15844;DHT22;50807;52.436;13.346;2023-05-07T03:08:01;13.60;98.10
15844;DHT22;50807;52.436;13.346;2023-05-07T03:08:32;13.60;98.10
15844;DHT22;50807;52.436;13.346;2023-05-07T03:09:04;13.60;98.10
15844;DHT22;50807;52.436;13.346;2023-05-07T03:09:35;13.60;98.10
15844;DHT22;50807;52.436;13.346;2023-05-07T03:10:07;13.60;98.10
15844;DHT22;50807;52.436;13.346;2023-05-07T03:10:38;13.60;98.10
15844;DHT22;50807;52.436;13.346;2023-05-07T03:11:09;13.60;98.00
15844;DHT22;50807;52.436;13.346;2023-05-07T03:11:41;13.60;98.10
15844;DHT22;50807;52.436;13.346;2023-05-07T03:12:11;13.60;98.10
15844;DHT22;50807;52.436;13.346;2023-05-07T03:12:42;13.60;98.10
15844;DHT22;50807;52.436;13.346;2023-05-07T03:13:14;13.60;98.10
15844;DHT22;50807;52.436;13.346;2023-05-07T03:13:45;13.60;98.10
15844;DHT22;50807;52.436;13.346;2023-05-07T03:14:16;13.60;98.10
15844;DHT22;50807;52.436;13.346;2023-05-07T03:14:46;13.60;98.20
15844;DHT22;50807;52.436;13.346;2023-05-07T03:15:18;13.60;98.20
15844;DHT22;50807;52.436;13.346;2023-05-07T03:15:49;13.60;98.30
15844;DHT22;50807;52.436;13.346;2023-05-07T03:16:20;13.60;98.30
15844;DHT22;50807;52.436;13.346;2023-05-07T03:16:51;13.60;98.30
15844;DHT22;50807;52.436;13.346;2023-05-07T03:17:23;13.60;98.30